Time;durP1;ratioP1;P1;durP2;ratioP2;P2;SDS_P1;SDS_P2;PMS_P1;PMS_P2;Temp;Humidity;BMP_temperature;BMP_pressure;BME280_temperature;BME280_humidity;BME280_pressure;Samples;Min_cycle;Max_cycle;Signal;HPM_P1;HPM_P2
2024/03/07 00:00:18;;;;;;;36.38;22.83;;;;;;;5.36;83.74;99126.88;4897909;28;105008;-71
2024/03/07 00:02:51;;;;;;;37.88;23.88;;;;;;;5.30;83.10;99129.97;4897729;28;103938;-71
2024/03/07 00:05:24;;;;;;;39.30;23.52;;;;;;;5.41;83.61;99127.31;4876554;28;105519;-71
2024/03/07 00:07:52;;;;;;;37.17;21.75;;;;;;;5.28;82.53;99135.34;4899017;28;103987;-71
2024/03/07 00:10:21;;;;;;;37.83;22.67;;;;;;;5.19;81.91;99137.88;4901520;28;106399;-72
2024/03/07 00:12:49;;;;;;;39.28;23.33;;;;;;;5.13;81.40;99133.94;4900304;28;104561;-70
2024/03/07 00:15:17;;;;;;;41.70;25.20;;;;;;;5.12;81.85;99127.88;4897304;28;103852;-71
2024/03/07 00:17:46;;;;;;;41.80;25.23;;;;;;;5.05;81.09;99131.13;4902231;28;103697;-71
2024/03/07 00:20:15;;;;;;;40.58;25.83;;;;;;;5.02;81.75;99134.81;4909707;28;103747;-71
2024/03/07 00:22:45;;;;;;;36.55;24.00;;;;;;;5.04;81.27;99138.13;4887619;28;103681;-70
2024/03/07 00:25:19;;;;;;;44.00;25.33;;;;;;;5.01;81.67;99135.78;4909578;28;102695;-71
2024/03/07 00:27:52;;;;;;;44.88;26.23;;;;;;;4.98;81.42;99130.78;4896424;28;103092;-70
2024/03/07 00:30:21;;;;;;;38.72;25.65;;;;;;;4.96;80.29;99136.13;4902706;28;106684;-71
2024/03/07 00:32:49;;;;;;;39.17;26.52;;;;;;;4.93;80.64;99132.91;4887363;28;104152;-71
2024/03/07 00:35:18;;;;;;;42.35;27.52;;;;;;;4.91;80.77;99130.44;4886424;28;102839;-72
2024/03/07 00:37:48;;;;;;;42.50;25.13;;;;;;;5.04;80.80;99129.44;4907184;28;103361;-72
2024/03/07 00:40:17;;;;;;;39.67;25.75;;;;;;;5.24;80.74;99125.22;4893992;28;104962;-70
2024/03/07 00:42:44;;;;;;;39.05;25.65;;;;;;;5.21;80.64;99133.34;4909620;28;102680;-70
2024/03/07 00:45:12;;;;;;;36.05;23.70;;;;;;;5.14;80.93;99131.19;4911624;28;103073;-71
2024/03/07 00:47:41;;;;;;;37.53;22.70;;;;;;;5.15;81.47;99130.25;4909983;28;103248;-71
2024/03/07 00:50:09;;;;;;;35.90;22.67;;;;;;;5.05;81.36;99123.25;4884143;28;104722;-71
2024/03/07 00:52:39;;;;;;;38.50;25.75;;;;;;;4.76;81.33;99129.81;4893827;28;104319;-71
2024/03/07 00:55:09;;;;;;;40.03;26.00;;;;;;;4.76;80.85;99121.94;4897316;28;102928;-71
2024/03/07 00:57:37;;;;;;;41.13;28.15;;;;;;;4.61;80.84;99126.63;4907755;28;109658;-71
2024/03/07 01:00:11;;;;;;;46.05;28.15;;;;;;;4.55;80.22;99123.66;4896874;28;106281;-71
2024/03/07 01:02:43;;;;;;;39.95;27.98;;;;;;;4.48;80.46;99118.88;4899468;28;102768;-71
2024/03/07 01:05:13;;;;;;;45.75;28.83;;;;;;;4.38;79.92;99117.91;4902015;28;103435;-71
2024/03/07 01:07:42;;;;;;;45.63;30.02;;;;;;;4.26;79.51;99111.00;4898685;28;103318;-70
2024/03/07 01:10:12;;;;;;;44.35;29.38;;;;;;;4.26;79.70;99113.63;4880030;28;106326;-70
2024/03/07 01:12:40;;;;;;;44.63;28.75;;;;;;;4.31;80.20;99112.31;4889389;28;102861;-71
2024/03/07 01:15:10;;;;;;;44.72;29.52;;;;;;;4.27;79.14;99120.50;4887521;28;102745;-70
2024/03/07 01:17:38;;;;;;;43.90;28.73;;;;;;;4.14;79.69;99105.72;4912788;28;104432;-70
2024/03/07 01:20:07;;;;;;;47.70;30.30;;;;;;;3.92;79.45;99105.69;4909802;28;103466;-71
2024/03/07 01:22:35;;;;;;;46.58;30.05;;;;;;;3.86;79.75;99112.22;4910262;28;103298;-71
2024/03/07 01:25:04;;;;;;;49.90;31.35;;;;;;;3.88;80.08;99109.47;4899359;28;105335;-71
2024/03/07 01:27:33;;;;;;;49.95;30.50;;;;;;;3.67;79.78;99107.53;4883097;28;106077;-70
2024/03/07 01:30:03;;;;;;;46.95;30.70;;;;;;;3.60;80.11;99104.53;4901525;28;105802;-70
2024/03/07 01:32:31;;;;;;;47.38;29.15;;;;;;;3.55;79.80;99109.28;4880914;28;102766;-71
2024/03/07 01:34:59;;;;;;;48.38;31.13;;;;;;;3.45;80.48;99109.09;4892481;28;105785;-71
2024/03/07 01:37:27;;;;;;;46.30;30.13;;;;;;;3.37;80.34;99111.44;4897586;28;103741;-70
2024/03/07 01:39:55;;;;;;;51.28;32.13;;;;;;;3.31;81.11;99101.41;4902528;28;105436;-71
2024/03/07 01:42:24;;;;;;;49.22;30.25;;;;;;;3.27;80.92;99100.78;4899194;28;102760;-70
2024/03/07 01:44:54;;;;;;;45.63;30.33;;;;;;;3.25;80.96;99097.47;4897794;28;105031;-70
2024/03/07 01:47:22;;;;;;;50.03;31.73;;;;;;;3.20;81.37;99098.75;4900285;28;103132;-71
2024/03/07 01:49:50;;;;;;;48.72;32.33;;;;;;;3.19;80.99;99095.28;4911432;28;105454;-71
2024/03/07 01:52:18;;;;;;;48.08;30.40;;;;;;;3.19;80.55;99097.09;4901856;28;102888;-71
2024/03/07 01:54:47;;;;;;;55.50;32.22;;;;;;;3.06;81.16;99087.47;4897862;28;103726;-71
2024/03/07 01:57:18;;;;;;;55.08;32.58;;;;;;;3.03;80.65;99085.09;4864301;28;103450;-70
2024/03/07 01:59:46;;;;;;;45.33;31.23;;;;;;;3.06;80.61;99087.47;4908050;28;104123;-70
2024/03/07 02:02:18;;;;;;;42.97;28.60;;;;;;;3.20;80.78;99089.09;4919529;28;103285;-71
2024/03/07 02:04:49;;;;;;;41.55;27.73;;;;;;;3.36;79.78;99073.13;4912490;28;102751;-71
2024/03/07 02:07:17;;;;;;;41.67;27.55;;;;;;;3.55;79.98;99087.47;4918203;28;104290;-71
2024/03/07 02:09:44;;;;;;;48.65;31.13;;;;;;;3.22;79.51;99083.75;4911126;28;103222;-71
2024/03/07 02:12:14;;;;;;;49.28;31.67;;;;;;;3.11;79.29;99085.38;4903325;28;103889;-71
2024/03/07 02:14:45;;;;;;;53.33;31.08;;;;;;;2.94;80.01;99078.72;4906004;28;102767;-70
2024/03/07 02:17:13;;;;;;;49.83;31.75;;;;;;;2.90;80.39;99074.66;4892474;28;105223;-71
2024/03/07 02:19:42;;;;;;;49.35;31.55;;;;;;;2.71;81.27;99071.69;4905013;28;103183;-71
2024/03/07 02:22:12;;;;;;;51.45;32.17;;;;;;;2.52;81.46;99072.19;4908659;28;102803;-71
2024/03/07 02:24:39;;;;;;;51.67;32.03;;;;;;;2.50;81.68;99072.25;4903498;28;103315;-72
2024/03/07 02:27:08;;;;;;;48.78;29.92;;;;;;;2.45;82.18;99066.50;4904322;28;103497;-72
2024/03/07 02:29:37;;;;;;;48.90;31.88;;;;;;;2.35;81.98;99071.56;4908952;28;103289;-71
2024/03/07 02:32:06;;;;;;;51.10;32.92;;;;;;;2.17;82.16;99062.38;4906763;28;104116;-71
2024/03/07 02:34:37;;;;;;;55.00;32.20;;;;;;;2.22;82.67;99055.06;4898613;28;102777;-72
2024/03/07 02:37:05;;;;;;;53.03;33.45;;;;;;;2.24;82.49;99056.63;4898165;28;102684;-72
2024/03/07 02:39:35;;;;;;;46.13;30.85;;;;;;;2.55;81.81;99056.25;4899586;28;107834;-72
2024/03/07 02:42:03;;;;;;;41.92;27.00;;;;;;;2.81;82.00;99055.22;4895857;28;102861;-72
2024/03/07 02:44:31;;;;;;;49.13;31.38;;;;;;;2.98;81.07;99054.00;4889971;28;103244;-72
2024/03/07 02:47:02;;;;;;;52.20;30.15;;;;;;;2.69;80.19;99057.91;4884475;28;105811;-71
2024/03/07 02:49:30;;;;;;;42.00;26.50;;;;;;;2.79;79.71;99054.53;4903524;28;103280;-72
2024/03/07 02:51:58;;;;;;;51.85;31.40;;;;;;;2.43;80.37;99053.56;4905814;28;103925;-71
2024/03/07 02:54:27;;;;;;;44.80;30.35;;;;;;;2.53;81.10;99052.91;4884144;28;102856;-71
2024/03/07 02:56:59;;;;;;;52.17;33.28;;;;;;;2.32;80.54;99046.47;4905983;28;103198;-71
2024/03/07 02:59:27;;;;;;;49.33;31.08;;;;;;;2.31;80.53;99049.19;4908050;28;102833;-71
2024/03/07 03:01:55;;;;;;;51.45;31.45;;;;;;;2.35;81.00;99050.66;4886844;28;103199;-71
2024/03/07 03:04:23;;;;;;;54.38;33.75;;;;;;;2.33;81.07;99049.91;4903276;28;103347;-71
2024/03/07 03:06:51;;;;;;;48.15;29.92;;;;;;;2.44;81.25;99049.19;4885366;28;103210;-71
2024/03/07 03:09:19;;;;;;;51.25;32.53;;;;;;;2.36;79.94;99041.88;4894889;28;104974;-71
2024/03/07 03:11:47;;;;;;;50.10;32.17;;;;;;;2.39;80.66;99049.47;4899674;28;102979;-71
2024/03/07 03:14:16;;;;;;;49.35;33.35;;;;;;;2.26;80.05;99046.06;4894976;28;103732;-71
2024/03/07 03:16:44;;;;;;;53.28;32.38;;;;;;;2.21;80.56;99048.16;4904104;28;104484;-71
2024/03/07 03:19:16;;;;;;;53.88;33.33;;;;;;;2.14;80.88;99043.34;4892935;28;105684;-71
2024/03/07 03:21:43;;;;;;;49.97;33.00;;;;;;;2.18;80.97;99037.94;4905730;28;103159;-71
2024/03/07 03:24:11;;;;;;;51.05;32.55;;;;;;;2.19;81.67;99044.81;4877569;28;102831;-71
2024/03/07 03:26:42;;;;;;;45.38;29.10;;;;;;;2.39;81.36;99039.03;4908191;28;103446;-70
2024/03/07 03:29:11;;;;;;;45.88;30.30;;;;;;;2.46;80.76;99035.06;4886019;28;104084;-71
2024/03/07 03:31:42;;;;;;;52.58;33.00;;;;;;;2.46;80.46;99042.03;4904439;28;103098;-71
2024/03/07 03:34:10;;;;;;;50.25;32.17;;;;;;;2.28;79.70;99041.53;4898302;28;103164;-71
2024/03/07 03:36:38;;;;;;;48.65;33.22;;;;;;;1.98;80.82;99047.97;4896440;28;103295;-71
2024/03/07 03:39:07;;;;;;;50.88;33.00;;;;;;;1.84;81.37;99046.28;4895772;28;103374;-71
2024/03/07 03:41:35;;;;;;;52.47;33.40;;;;;;;1.59;81.41;99047.09;4880092;28;102984;-71
2024/03/07 03:44:03;;;;;;;54.90;33.00;;;;;;;1.45;82.89;99048.00;4893986;28;102787;-71
2024/03/07 03:46:31;;;;;;;51.40;33.60;;;;;;;1.52;83.08;99046.69;4883410;28;105251;-71
2024/03/07 03:49:00;;;;;;;47.47;32.65;;;;;;;1.72;82.74;99047.94;4904395;28;103947;-71
2024/03/07 03:51:29;;;;;;;52.95;34.17;;;;;;;1.64;82.01;99047.63;4896225;28;106800;-71
2024/03/07 03:53:58;;;;;;;60.25;34.10;;;;;;;1.29;83.23;99040.38;4887779;28;102786;-71
2024/03/07 03:56:26;;;;;;;54.42;33.88;;;;;;;1.21;83.72;99047.88;4898414;28;105386;-71
2024/03/07 03:58:54;;;;;;;52.72;34.97;;;;;;;1.14;83.64;99042.19;4902482;28;103409;-72
2024/03/07 04:01:23;;;;;;;62.63;35.92;;;;;;;1.20;84.29;99046.19;4902221;28;102824;-71
2024/03/07 04:03:52;;;;;;;54.83;34.53;;;;;;;1.27;84.27;99037.00;4867750;28;102996;-73
2024/03/07 04:06:22;;;;;;;57.55;36.38;;;;;;;1.36;83.91;99039.00;4876253;28;105117;-72
2024/03/07 04:08:51;;;;;;;64.50;35.85;;;;;;;1.27;83.65;99042.22;4880795;28;105382;-72
2024/03/07 04:11:20;;;;;;;53.80;35.67;;;;;;;1.25;83.73;99041.50;4904666;28;102885;-72
2024/03/07 04:13:48;;;;;;;52.35;34.25;;;;;;;1.25;83.91;99033.69;4887900;28;102814;-72
2024/03/07 04:16:16;;;;;;;60.80;36.90;;;;;;;1.25;84.16;99039.72;4905523;28;103355;-72
2024/03/07 04:18:45;;;;;;;61.95;36.75;;;;;;;1.22;83.92;99034.72;4885959;28;106187;-72
2024/03/07 04:21:14;;;;;;;64.22;35.17;;;;;;;1.32;84.08;99037.53;4896862;28;102699;-72
2024/03/07 04:23:46;;;;;;;63.40;35.97;;;;;;;1.43;84.23;99035.06;4872906;28;103901;-72
2024/03/07 04:26:15;;;;;;;65.45;37.55;;;;;;;1.61;83.71;99034.78;4899841;28;103797;-72
2024/03/07 04:28:44;;;;;;;59.67;36.78;;;;;;;1.46;83.79;99042.69;4903604;28;103190;-73
2024/03/07 04:31:14;;;;;;;53.95;36.80;;;;;;;1.34;84.58;99035.69;4897884;28;104751;-72
2024/03/07 04:33:43;;;;;;;59.70;35.33;;;;;;;1.34;83.93;99033.06;4897903;28;105080;-72
2024/03/07 04:36:12;;;;;;;56.05;33.55;;;;;;;1.55;83.59;99030.81;4888725;28;105359;-71
2024/03/07 04:38:44;;;;;;;51.20;31.75;;;;;;;1.65;82.90;99033.63;4872277;28;104118;-72
2024/03/07 04:41:15;;;;;;;54.00;34.55;;;;;;;1.61;82.43;99035.63;4905165;28;103721;-71
2024/03/07 04:43:43;;;;;;;56.67;35.85;;;;;;;1.32;82.51;99024.50;4890302;28;103422;-73
2024/03/07 04:46:11;;;;;;;59.78;34.92;;;;;;;1.43;83.10;99032.47;4882510;28;104645;-72
2024/03/07 04:48:40;;;;;;;58.95;36.92;;;;;;;1.40;82.69;99027.47;4898639;28;103699;-73
2024/03/07 04:51:09;;;;;;;54.97;34.15;;;;;;;1.41;82.95;99028.28;4906321;28;102714;-72
2024/03/07 04:53:41;;;;;;;62.45;34.88;;;;;;;1.52;82.31;99017.13;4901781;28;102807;-73
2024/03/07 04:56:15;;;;;;;46.75;30.73;;;;;;;1.60;82.08;99023.50;4891137;28;104724;-72
2024/03/07 04:58:44;;;;;;;59.83;34.67;;;;;;;1.34;82.15;99027.84;4895237;28;105505;-72
2024/03/07 05:01:13;;;;;;;54.67;33.92;;;;;;;1.31;82.14;99017.59;4872754;28;103045;-72
2024/03/07 05:03:42;;;;;;;58.60;33.97;;;;;;;1.45;82.52;99032.34;4877237;28;103211;-72
2024/03/07 05:06:10;;;;;;;53.25;32.80;;;;;;;1.45;82.72;99035.78;4893139;28;103230;-72
2024/03/07 05:08:38;;;;;;;45.50;27.85;;;;;;;1.62;81.87;99026.00;4900249;28;103957;-73
2024/03/07 05:11:07;;;;;;;47.42;30.83;;;;;;;1.68;81.94;99029.97;4896220;28;103127;-73
2024/03/07 05:13:42;;;;;;;56.38;33.05;;;;;;;1.53;81.08;99035.28;4895876;28;103296;-70
2024/03/07 05:16:13;;;;;;;44.35;28.75;;;;;;;1.47;80.97;99033.09;4897394;28;104005;-70
2024/03/07 05:18:43;;;;;;;50.70;32.35;;;;;;;1.37;80.86;99037.25;4880182;28;103330;-71
2024/03/07 05:23:59;;;;;;;42.70;26.25;;;;;;;1.44;80.61;99038.50;4866419;28;104091;-71
2024/03/07 05:26:27;;;;;;;50.40;31.55;;;;;;;1.52;80.62;99036.25;4877356;28;104910;-70
2024/03/07 05:29:03;;;;;;;50.40;30.27;;;;;;;1.37;80.75;99032.84;4880222;28;102776;-73
2024/03/07 05:31:33;;;;;;;53.05;32.05;;;;;;;1.18;80.37;99032.38;4894382;28;104040;-73
2024/03/07 05:34:08;;;;;;;45.97;28.60;;;;;;;1.14;80.22;99035.22;4878042;28;102795;-73
2024/03/07 05:36:43;;;;;;;47.67;28.88;;;;;;;1.20;81.21;99020.91;4853308;28;108885;-73
2024/03/07 05:39:14;;;;;;;42.40;27.63;;;;;;;1.18;80.84;99028.03;4848902;28;105956;-71
2024/03/07 05:41:45;;;;;;;44.17;29.48;;;;;;;1.21;80.61;99013.94;4865104;28;102929;-71
2024/03/07 05:44:16;;;;;;;41.20;26.40;;;;;;;1.29;80.79;99024.72;4869404;28;103187;-72
2024/03/07 05:46:50;;;;;;;46.35;27.40;;;;;;;1.31;80.59;99023.66;4883715;28;103583;-72
2024/03/07 05:49:20;;;;;;;45.83;27.98;;;;;;;1.02;79.67;99033.38;4888496;28;105197;-72
2024/03/07 05:51:48;;;;;;;44.10;29.02;;;;;;;0.92;80.20;99030.53;4903097;28;102825;-72
2024/03/07 05:54:17;;;;;;;46.28;29.85;;;;;;;0.88;81.17;99015.19;4904734;28;103142;-73
2024/03/07 05:56:45;;;;;;;49.20;29.15;;;;;;;0.90;81.64;99018.53;4893085;28;104143;-73
2024/03/07 05:59:14;;;;;;;48.10;29.88;;;;;;;0.77;80.21;99029.75;4909381;28;104264;-74
2024/03/07 06:01:44;;;;;;;50.53;28.88;;;;;;;0.87;80.91;99023.97;4902504;28;102780;-73
2024/03/07 06:04:15;;;;;;;44.33;26.80;;;;;;;0.88;81.25;99020.41;4908434;28;103464;-72
2024/03/07 06:06:45;;;;;;;49.05;28.80;;;;;;;1.03;80.82;99024.63;4903488;28;104175;-73
2024/03/07 06:09:20;;;;;;;45.28;27.48;;;;;;;1.04;80.39;99025.47;4916411;28;103291;-72
2024/03/07 06:11:50;;;;;;;46.45;28.92;;;;;;;0.98;80.52;99024.94;4894367;28;102918;-72
2024/03/07 06:14:19;;;;;;;44.05;26.92;;;;;;;0.80;79.55;99029.56;4908906;28;102811;-72
2024/03/07 06:16:51;;;;;;;45.03;28.25;;;;;;;0.80;79.86;99026.94;4913851;28;103433;-72
2024/03/07 06:19:20;;;;;;;39.22;26.20;;;;;;;0.88;80.37;99016.03;4911731;28;106849;-73
2024/03/07 06:21:49;;;;;;;44.33;26.50;;;;;;;1.10;80.36;99020.69;4911532;28;103696;-72
2024/03/07 06:24:18;;;;;;;38.72;23.55;;;;;;;1.12;79.89;99018.81;4906014;28;103196;-76
2024/03/07 06:26:59;;;;;;;40.33;24.20;;;;;;;1.15;79.53;99020.38;4937338;28;106172;-76
2024/03/07 06:29:31;;;;;;;39.72;25.83;;;;;;;1.01;78.50;99021.31;4921266;28;102715;-74
2024/03/07 06:32:01;;;;;;;41.55;25.50;;;;;;;1.23;78.98;99022.50;4932782;28;103014;-77
2024/03/07 06:34:30;;;;;;;45.78;26.52;;;;;;;1.15;78.56;99018.63;4916644;28;102893;-77
2024/03/07 06:36:58;;;;;;;40.55;25.65;;;;;;;1.02;79.77;99020.34;4934122;28;103376;-76
2024/03/07 06:39:26;;;;;;;41.58;25.70;;;;;;;1.00;79.99;99024.84;4933586;28;103346;-77
2024/03/07 06:41:55;;;;;;;47.88;26.15;;;;;;;1.00;80.33;99019.63;4934945;28;102649;-77
2024/03/07 06:44:23;;;;;;;44.55;27.17;;;;;;;0.90;80.21;99021.16;4928349;28;102961;-77
2024/03/07 06:46:51;;;;;;;40.80;26.77;;;;;;;1.09;80.15;99023.41;4932510;28;103327;-76
2024/03/07 06:49:21;;;;;;;39.40;24.33;;;;;;;1.25;79.84;99012.81;4933515;28;105608;-76
2024/03/07 06:51:49;;;;;;;41.83;26.92;;;;;;;1.37;79.43;99017.19;4936136;28;102470;-77
2024/03/07 06:54:17;;;;;;;46.55;28.58;;;;;;;1.24;78.76;99024.16;4936017;28;102621;-75
2024/03/07 06:56:46;;;;;;;37.20;24.80;;;;;;;1.23;79.38;99019.88;4928978;28;102744;-76
2024/03/07 06:59:14;;;;;;;40.22;25.48;;;;;;;1.53;79.38;99018.78;4929095;28;103143;-75
2024/03/07 07:01:42;;;;;;;40.22;25.05;;;;;;;1.45;78.30;99024.53;4915926;28;102712;-75
2024/03/07 07:04:12;;;;;;;32.00;20.85;;;;;;;1.76;78.35;99025.91;4911917;28;102715;-75
2024/03/07 07:06:42;;;;;;;37.70;24.52;;;;;;;2.07;78.44;99031.66;4928146;28;103058;-76
2024/03/07 07:09:11;;;;;;;38.25;22.83;;;;;;;2.09;77.89;99024.53;4938879;28;102572;-75
2024/03/07 07:11:39;;;;;;;39.15;25.00;;;;;;;1.88;78.24;99024.25;4933278;28;102775;-76
2024/03/07 07:14:07;;;;;;;40.95;25.30;;;;;;;1.84;77.71;99025.38;4936594;28;103857;-75
2024/03/07 07:16:41;;;;;;;39.25;25.27;;;;;;;1.91;78.62;99020.59;4930693;28;108686;-75
2024/03/07 07:19:10;;;;;;;42.45;25.67;;;;;;;2.05;76.75;99017.84;4926575;28;104948;-75
2024/03/07 07:21:38;;;;;;;38.17;24.55;;;;;;;1.81;77.83;99021.22;4931670;28;102844;-75
2024/03/07 07:24:08;;;;;;;32.35;20.73;;;;;;;2.04;77.55;99021.41;4930888;28;102795;-75
2024/03/07 07:26:37;;;;;;;35.92;23.48;;;;;;;2.59;77.03;99015.88;4927178;28;107761;-74
2024/03/07 07:29:05;;;;;;;40.85;25.83;;;;;;;2.67;76.21;99017.94;4926592;28;105300;-76
2024/03/07 07:31:33;;;;;;;35.75;23.52;;;;;;;1.89;77.33;99017.25;4919437;28;102869;-71
2024/03/07 07:34:04;;;;;;;42.80;24.55;;;;;;;2.07;77.09;99015.97;4922470;28;102746;-75
2024/03/07 07:36:32;;;;;;;39.50;25.55;;;;;;;2.04;76.94;99016.19;4921949;28;103584;-78
2024/03/07 07:39:04;;;;;;;36.17;23.92;;;;;;;2.24;76.14;99008.72;4911843;28;102671;-75
2024/03/07 07:41:37;;;;;;;40.17;24.27;;;;;;;2.25;76.62;99019.06;4916790;28;102907;-74
2024/03/07 07:44:06;;;;;;;35.53;24.33;;;;;;;2.53;75.66;99022.38;4909118;28;102762;-75
2024/03/07 07:46:35;;;;;;;38.72;24.13;;;;;;;2.12;75.52;99015.66;4923092;28;108154;-75
2024/03/07 07:49:03;;;;;;;35.28;24.25;;;;;;;2.15;76.01;99010.22;4911800;28;105573;-76
2024/03/07 07:51:31;;;;;;;37.70;24.33;;;;;;;2.08;77.44;99001.94;4924410;28;102635;-77
2024/03/07 07:54:02;;;;;;;36.22;22.60;;;;;;;2.76;76.50;99001.59;4925480;28;102846;-77
2024/03/07 07:56:31;;;;;;;38.53;24.08;;;;;;;2.58;75.77;99003.72;4926635;28;104645;-75
2024/03/07 07:59:01;;;;;;;37.10;23.83;;;;;;;3.25;75.09;99003.22;4907210;28;102861;-76
2024/03/07 08:01:29;;;;;;;35.90;22.75;;;;;;;3.36;73.51;98999.81;4913581;28;102804;-77
2024/03/07 08:03:58;;;;;;;33.22;21.92;;;;;;;3.03;74.55;99003.97;4927296;28;102951;-78
2024/03/07 08:06:27;;;;;;;34.08;22.55;;;;;;;3.19;75.01;99000.22;4927806;28;106405;-77
2024/03/07 08:08:55;;;;;;;38.40;25.65;;;;;;;2.61;75.61;98998.31;4904003;28;103902;-78
2024/03/07 08:11:24;;;;;;;38.13;24.52;;;;;;;2.55;75.52;98998.72;4924944;28;102652;-78
2024/03/07 08:13:52;;;;;;;42.83;24.65;;;;;;;2.85;75.06;99002.72;4928024;28;102793;-77
2024/03/07 08:16:24;;;;;;;38.15;23.70;;;;;;;3.39;73.78;98994.31;4897536;28;106061;-78
2024/03/07 08:18:52;;;;;;;37.58;25.70;;;;;;;3.44;73.66;98992.19;4904470;28;105816;-77
2024/03/07 08:21:20;;;;;;;42.03;24.63;;;;;;;3.09;74.12;98993.06;4900999;28;103959;-78
2024/03/07 08:23:49;;;;;;;44.08;25.02;;;;;;;3.52;72.10;98982.94;4920934;28;102724;-78
2024/03/07 08:26:17;;;;;;;37.95;24.40;;;;;;;3.45;73.13;98993.88;4921903;28;105213;-78
2024/03/07 08:28:45;;;;;;;39.72;24.55;;;;;;;3.42;72.65;98994.13;4904587;28;104747;-78
2024/03/07 08:31:13;;;;;;;40.50;25.13;;;;;;;3.37;73.05;98992.78;4912003;28;102753;-78
2024/03/07 08:33:45;;;;;;;38.55;24.13;;;;;;;3.04;74.15;98987.31;4922913;28;102727;-77
2024/03/07 08:36:13;;;;;;;37.22;25.02;;;;;;;3.64;75.10;98988.09;4923733;28;102693;-77
2024/03/07 08:38:43;;;;;;;39.47;23.75;;;;;;;4.10;73.13;98988.09;4915376;28;106075;-77
2024/03/07 08:41:11;;;;;;;36.75;23.65;;;;;;;4.16;73.16;98985.00;4931691;28;102788;-77
2024/03/07 08:43:39;;;;;;;38.05;25.52;;;;;;;4.40;72.42;98990.13;4928134;28;102756;-78
2024/03/07 08:46:11;;;;;;;38.50;24.60;;;;;;;4.07;72.08;98989.16;4929578;28;105814;-78
2024/03/07 08:48:39;;;;;;;37.47;24.85;;;;;;;4.25;71.07;98991.31;4928848;28;102756;-78
2024/03/07 08:51:09;;;;;;;34.65;24.73;;;;;;;4.37;72.08;98990.34;4926425;28;102967;-78
2024/03/07 08:53:37;;;;;;;36.03;22.65;;;;;;;4.60;70.62;98988.53;4929474;28;102925;-78
2024/03/07 08:56:06;;;;;;;36.95;23.67;;;;;;;4.46;70.36;98981.75;4925955;28;103385;-78
2024/03/07 08:58:37;;;;;;;31.35;21.27;;;;;;;4.67;70.13;98983.63;4933175;28;103362;-76
2024/03/07 09:01:05;;;;;;;34.90;21.90;;;;;;;4.85;70.72;98983.06;4905165;28;103030;-78
2024/03/07 09:03:33;;;;;;;35.92;22.73;;;;;;;4.57;70.23;98991.41;4923507;28;102677;-78
2024/03/07 09:06:03;;;;;;;34.08;22.80;;;;;;;4.58;69.67;98981.72;4927667;28;103324;-76
2024/03/07 09:08:33;;;;;;;36.60;23.10;;;;;;;4.57;69.68;98980.06;4924059;28;105234;-75
2024/03/07 09:11:02;;;;;;;30.08;21.33;;;;;;;4.81;70.22;98980.72;4929535;28;102619;-78
2024/03/07 09:13:30;;;;;;;33.00;22.20;;;;;;;5.00;69.63;98976.59;4930387;28;102600;-78
2024/03/07 09:15:58;;;;;;;33.60;22.85;;;;;;;5.08;69.94;98971.56;4925642;28;104154;-78
2024/03/07 09:18:27;;;;;;;33.15;22.73;;;;;;;4.95;69.99;98973.50;4926096;28;106225;-78
2024/03/07 09:20:55;;;;;;;27.90;19.15;;;;;;;5.25;69.32;98972.78;4924852;28;102782;-78
2024/03/07 09:23:23;;;;;;;32.33;22.88;;;;;;;5.31;68.75;98968.81;4918332;28;102695;-78
2024/03/07 09:42:19;;;;;;;32.10;21.05;;;;;;;6.00;68.12;98949.03;4902720;28;107517;-74
2024/03/07 09:44:48;;;;;;;33.28;22.42;;;;;;;6.10;67.21;98952.50;4916770;28;104401;-79
2024/03/07 09:47:18;;;;;;;29.15;20.42;;;;;;;6.96;65.84;98945.88;4910671;28;102747;-73
2024/03/07 09:49:47;;;;;;;33.30;21.55;;;;;;;6.25;61.56;98946.84;4935786;28;102686;-75
2024/03/07 09:52:16;;;;;;;31.75;21.35;;;;;;;6.16;66.72;98947.66;4923796;28;104870;-79
2024/03/07 09:54:45;;;;;;;33.05;21.65;;;;;;;6.63;64.53;98950.56;4922487;28;102741;-75
2024/03/07 09:57:15;;;;;;;31.67;22.30;;;;;;;6.80;64.62;98947.25;4910293;28;102735;-78
2024/03/07 09:59:49;;;;;;;33.72;20.52;;;;;;;7.28;65.08;98939.44;4925075;28;102778;-74
2024/03/07 10:02:20;;;;;;;35.03;22.67;;;;;;;6.18;64.51;98946.56;4908032;28;105383;-79
2024/03/07 10:04:52;;;;;;;35.70;23.83;;;;;;;5.65;66.55;98945.78;4926872;28;103473;-74
2024/03/07 10:07:20;;;;;;;32.53;23.10;;;;;;;5.45;68.95;98944.84;4920756;28;102780;-81
2024/03/07 10:09:49;;;;;;;34.28;21.92;;;;;;;5.99;67.92;98939.47;4905245;28;102992;-81
2024/03/07 10:12:18;;;;;;;36.03;23.63;;;;;;;6.99;64.65;98940.31;4912723;28;104348;-77
2024/03/07 10:14:51;;;;;;;35.22;21.63;;;;;;;7.60;62.29;98935.66;4935893;28;102696;-76
2024/03/07 10:17:20;;;;;;;31.80;22.25;;;;;;;8.27;62.69;98946.88;4933338;28;102629;-79
2024/03/07 10:19:50;;;;;;;32.97;21.35;;;;;;;8.62;62.07;98936.59;4938736;28;102729;-77
2024/03/07 10:22:20;;;;;;;32.95;22.48;;;;;;;8.66;61.20;98937.94;4917389;28;102849;-77
2024/03/07 10:24:52;;;;;;;33.53;22.75;;;;;;;8.47;61.29;98941.53;4920675;28;102811;-77
2024/03/07 10:27:24;;;;;;;30.93;21.67;;;;;;;8.81;61.14;98942.69;4930456;28;102905;-76
2024/03/07 10:29:55;;;;;;;34.35;23.15;;;;;;;7.95;59.90;98936.75;4917235;28;103082;-77
2024/03/07 10:32:25;;;;;;;30.67;20.80;;;;;;;8.85;61.33;98938.78;4915067;28;102888;-75
2024/03/07 10:34:55;;;;;;;33.40;21.98;;;;;;;8.35;58.27;98938.22;4927981;28;103429;-77
2024/03/07 10:37:25;;;;;;;34.47;23.48;;;;;;;8.37;61.28;98936.28;4932192;28;102656;-76
2024/03/07 10:39:54;;;;;;;31.10;21.02;;;;;;;8.95;60.39;98935.06;4922337;28;103093;-76
2024/03/07 10:42:24;;;;;;;31.30;21.45;;;;;;;8.67;60.00;98925.56;4927036;28;103906;-76
2024/03/07 10:45:01;;;;;;;44.50;24.23;;;;;;;8.49;59.94;98917.63;4925175;28;103211;-76
2024/03/07 10:47:31;;;;;;;35.50;23.45;;;;;;;7.95;60.54;98921.78;4921531;28;102859;-77
2024/03/07 10:50:14;;;;;;;37.00;23.90;;;;;;;7.55;60.84;98920.25;4906224;28;102766;-76
2024/03/07 10:52:51;;;;;;;33.10;23.42;;;;;;;8.36;59.14;98918.78;4922944;28;103662;-75
2024/03/07 10:55:29;;;;;;;34.95;23.08;;;;;;;8.29;58.32;98918.56;4897218;28;104291;-76
2024/03/07 10:58:04;;;;;;;39.50;23.48;;;;;;;8.68;58.64;98911.38;4922171;28;102866;-76
2024/03/07 11:00:39;;;;;;;33.78;22.50;;;;;;;9.04;58.88;98901.63;4920718;28;103114;-76
2024/03/07 11:03:08;;;;;;;34.30;22.85;;;;;;;8.76;58.47;98907.00;4925022;28;106662;-76
2024/03/07 11:05:36;;;;;;;34.42;23.30;;;;;;;8.94;56.27;98906.97;4904872;28;105302;-76
2024/03/07 11:08:11;;;;;;;37.92;23.58;;;;;;;9.17;57.20;98900.38;4929893;28;102798;-77
2024/03/07 11:10:41;;;;;;;36.80;23.33;;;;;;;9.01;59.79;98899.28;4930760;28;102913;-75
2024/03/07 11:13:12;;;;;;;40.00;24.90;;;;;;;7.73;60.33;98907.16;4920512;28;104203;-76
2024/03/07 11:15:46;;;;;;;37.70;24.98;;;;;;;7.11;63.26;98901.47;4924319;28;103244;-76
2024/03/07 11:18:15;;;;;;;38.05;25.20;;;;;;;7.51;62.77;98899.63;4929519;28;102739;-77
2024/03/07 11:20:46;;;;;;;42.10;26.17;;;;;;;7.16;64.68;98890.53;4919490;28;103154;-76
2024/03/07 11:23:28;;;;;;;39.75;26.25;;;;;;;6.68;64.75;98890.44;4899710;28;107101;-75
2024/03/07 11:26:07;;;;;;;43.05;26.45;;;;;;;6.60;64.98;98882.38;4918687;28;106657;-78
2024/03/07 11:28:37;;;;;;;37.90;25.67;;;;;;;6.64;65.30;98881.13;4904218;28;102795;-73
2024/03/07 11:31:13;;;;;;;40.80;25.45;;;;;;;6.75;64.08;98873.13;4923710;28;102723;-74
2024/03/07 11:33:43;;;;;;;43.45;25.35;;;;;;;6.98;62.76;98875.44;4919421;28;104402;-73
2024/03/07 11:36:12;;;;;;;36.85;25.20;;;;;;;6.86;63.24;98869.50;4907986;28;106369;-75
2024/03/07 11:38:46;;;;;;;44.13;25.92;;;;;;;6.75;63.06;98864.41;4913674;28;103196;-74
2024/03/07 11:41:15;;;;;;;38.22;24.80;;;;;;;7.00;66.09;98862.97;4910545;28;102768;-74
2024/03/07 11:43:43;;;;;;;37.25;25.50;;;;;;;6.65;64.21;98859.13;4911605;28;103228;-74
2024/03/07 11:46:16;;;;;;;43.03;24.98;;;;;;;6.48;65.01;98855.38;4925373;28;103576;-75